sensor_id;sensor_type;location;lat;lon;timestamp;temperature;humidity
5196;DHT22;2617;51.006;12.436;2022-09-30T00:04:14;8.20;99.90
5196;DHT22;2617;51.006;12.436;2022-09-30T00:09:15;8.20;99.90
5196;DHT22;2617;51.006;12.436;2022-09-30T00:14:19;8.20;99.90
5196;DHT22;2617;51.006;12.436;2022-09-30T00:19:21;8.20;99.90
5196;DHT22;2617;51.006;12.436;2022-09-30T00:24:24;8.20;99.90
5196;DHT22;2617;51.006;12.436;2022-09-30T00:29:26;8.20;99.90
5196;DHT22;2617;51.006;12.436;2022-09-30T00:34:28;8.10;99.90
5196;DHT22;2617;51.006;12.436;2022-09-30T00:39:31;8.10;99.90
5196;DHT22;2617;51.006;12.436;2022-09-30T00:44:43;8.10;99.90
5196;DHT22;2617;51.006;12.436;2022-09-30T00:49:46;8.10;99.90
5196;DHT22;2617;51.006;12.436;2022-09-30T00:54:48;8.10;99.90
5196;DHT22;2617;51.006;12.436;2022-09-30T00:59:52;8.10;99.90
5196;DHT22;2617;51.006;12.436;2022-09-30T01:04:54;8.10;99.90
5196;DHT22;2617;51.006;12.436;2022-09-30T01:09:57;8.10;99.90
5196;DHT22;2617;51.006;12.436;2022-09-30T01:15:00;8.10;99.90
5196;DHT22;2617;51.006;12.436;2022-09-30T01:25:52;8.10;99.90
5196;DHT22;2617;51.006;12.436;2022-09-30T01:36:37;8.00;99.90
5196;DHT22;2617;51.006;12.436;2022-09-30T01:47:30;8.00;99.90
5196;DHT22;2617;51.006;12.436;2022-09-30T01:52:38;7.90;99.90
5196;DHT22;2617;51.006;12.436;2022-09-30T01:57:49;7.90;99.90
5196;DHT22;2617;51.006;12.436;2022-09-30T02:03:14;7.90;99.90
5196;DHT22;2617;51.006;12.436;2022-09-30T02:08:20;7.90;99.90
5196;DHT22;2617;51.006;12.436;2022-09-30T02:13:42;7.90;99.90
5196;DHT22;2617;51.006;12.436;2022-09-30T02:18:51;7.90;99.90
5196;DHT22;2617;51.006;12.436;2022-09-30T02:23:55;7.90;99.90
5196;DHT22;2617;51.006;12.436;2022-09-30T02:28:57;7.90;99.90
5196;DHT22;2617;51.006;12.436;2022-09-30T02:34:02;7.90;99.90
5196;DHT22;2617;51.006;12.436;2022-09-30T02:39:05;7.90;99.90
5196;DHT22;2617;51.006;12.436;2022-09-30T02:44:11;7.90;99.90
5196;DHT22;2617;51.006;12.436;2022-09-30T02:49:18;7.90;99.90
5196;DHT22;2617;51.006;12.436;2022-09-30T02:59:44;7.90;99.90
5196;DHT22;2617;51.006;12.436;2022-09-30T03:04:45;7.90;99.90
5196;DHT22;2617;51.006;12.436;2022-09-30T03:09:48;7.90;99.90
5196;DHT22;2617;51.006;12.436;2022-09-30T03:15:15;7.90;99.90
5196;DHT22;2617;51.006;12.436;2022-09-30T03:32:00;7.90;99.90
5196;DHT22;2617;51.006;12.436;2022-09-30T03:37:20;7.90;99.90
5196;DHT22;2617;51.006;12.436;2022-09-30T03:42:26;7.90;99.90
5196;DHT22;2617;51.006;12.436;2022-09-30T03:47:28;7.80;99.90
5196;DHT22;2617;51.006;12.436;2022-09-30T03:52:30;7.80;99.90
5196;DHT22;2617;51.006;12.436;2022-09-30T03:57:33;7.70;99.90
5196;DHT22;2617;51.006;12.436;2022-09-30T04:02:35;7.70;99.90
5196;DHT22;2617;51.006;12.436;2022-09-30T04:07:37;7.70;99.90
5196;DHT22;2617;51.006;12.436;2022-09-30T04:12:40;7.70;99.90
5196;DHT22;2617;51.006;12.436;2022-09-30T04:17:42;7.70;99.90
5196;DHT22;2617;51.006;12.436;2022-09-30T04:22:45;7.80;99.90
5196;DHT22;2617;51.006;12.436;2022-09-30T04:27:48;7.80;99.90
5196;DHT22;2617;51.006;12.436;2022-09-30T04:32:50;7.80;99.90
5196;DHT22;2617;51.006;12.436;2022-09-30T04:37:52;7.80;99.90
5196;DHT22;2617;51.006;12.436;2022-09-30T04:42:56;7.90;99.90
5196;DHT22;2617;51.006;12.436;2022-09-30T04:47:58;7.90;99.90
5196;DHT22;2617;51.006;12.436;2022-09-30T04:53:00;7.90;99.90
5196;DHT22;2617;51.006;12.436;2022-09-30T04:58:03;7.90;99.90
5196;DHT22;2617;51.006;12.436;2022-09-30T05:03:05;7.90;99.90
5196;DHT22;2617;51.006;12.436;2022-09-30T05:08:08;7.90;99.90
5196;DHT22;2617;51.006;12.436;2022-09-30T05:13:10;8.00;99.90
5196;DHT22;2617;51.006;12.436;2022-09-30T05:18:12;8.00;99.90
5196;DHT22;2617;51.006;12.436;2022-09-30T05:23:15;7.90;99.90
5196;DHT22;2617;51.006;12.436;2022-09-30T05:28:17;8.00;99.90
5196;DHT22;2617;51.006;12.436;2022-09-30T05:33:20;8.00;99.90
5196;DHT22;2617;51.006;12.436;2022-09-30T05:38:22;8.10;99.90
5196;DHT22;2617;51.006;12.436;2022-09-30T05:43:24;8.10;99.90
5196;DHT22;2617;51.006;12.436;2022-09-30T05:48:27;8.10;99.90
5196;DHT22;2617;51.006;12.436;2022-09-30T05:53:29;8.10;99.90
5196;DHT22;2617;51.006;12.436;2022-09-30T05:58:32;8.20;99.90
5196;DHT22;2617;51.006;12.436;2022-09-30T06:03:34;8.30;99.90
5196;DHT22;2617;51.006;12.436;2022-09-30T06:08:37;8.40;99.90
5196;DHT22;2617;51.006;12.436;2022-09-30T06:13:40;8.40;99.90
5196;DHT22;2617;51.006;12.436;2022-09-30T06:18:42;8.50;99.90
5196;DHT22;2617;51.006;12.436;2022-09-30T06:23:44;8.70;99.90
5196;DHT22;2617;51.006;12.436;2022-09-30T06:28:46;8.80;99.90
5196;DHT22;2617;51.006;12.436;2022-09-30T06:33:51;8.90;99.90
5196;DHT22;2617;51.006;12.436;2022-09-30T06:38:54;8.90;99.90
5196;DHT22;2617;51.006;12.436;2022-09-30T06:43:57;9.40;99.90
5196;DHT22;2617;51.006;12.436;2022-09-30T06:49:00;9.40;99.90
5196;DHT22;2617;51.006;12.436;2022-09-30T06:54:02;9.70;99.90
5196;DHT22;2617;51.006;12.436;2022-09-30T06:59:04;10.00;99.90
5196;DHT22;2617;51.006;12.436;2022-09-30T07:04:09;10.30;99.90
5196;DHT22;2617;51.006;12.436;2022-09-30T07:09:10;10.50;99.90
5196;DHT22;2617;51.006;12.436;2022-09-30T07:14:13;10.40;99.90
5196;DHT22;2617;51.006;12.436;2022-09-30T07:19:16;10.40;99.90
5196;DHT22;2617;51.006;12.436;2022-09-30T07:24:18;10.40;99.90
5196;DHT22;2617;51.006;12.436;2022-09-30T07:29:20;10.50;99.90
5196;DHT22;2617;51.006;12.436;2022-09-30T07:34:23;10.60;99.90
5196;DHT22;2617;51.006;12.436;2022-09-30T07:39:25;10.70;99.90
5196;DHT22;2617;51.006;12.436;2022-09-30T07:44:28;10.90;99.90
5196;DHT22;2617;51.006;12.436;2022-09-30T07:49:30;11.00;99.90
5196;DHT22;2617;51.006;12.436;2022-09-30T07:54:33;11.10;99.90
5196;DHT22;2617;51.006;12.436;2022-09-30T07:59:37;11.10;99.90
5196;DHT22;2617;51.006;12.436;2022-09-30T08:04:37;11.10;99.90
5196;DHT22;2617;51.006;12.436;2022-09-30T08:09:41;11.30;99.90
5196;DHT22;2617;51.006;12.436;2022-09-30T08:14:43;11.20;99.90
5196;DHT22;2617;51.006;12.436;2022-09-30T08:19:45;11.30;99.90
5196;DHT22;2617;51.006;12.436;2022-09-30T08:24:48;11.50;99.90
5196;DHT22;2617;51.006;12.436;2022-09-30T08:29:50;11.70;99.90
5196;DHT22;2617;51.006;12.436;2022-09-30T08:34:52;11.90;99.90
5196;DHT22;2617;51.006;12.436;2022-09-30T08:39:55;12.00;99.90
5196;DHT22;2617;51.006;12.436;2022-09-30T08:50:47;12.30;99.90
5196;DHT22;2617;51.006;12.436;2022-09-30T08:55:50;12.50;99.90
5196;DHT22;2617;51.006;12.436;2022-09-30T09:00:54;12.60;99.90
5196;DHT22;2617;51.006;12.436;2022-09-30T09:11:58;12.80;99.90
5196;DHT22;2617;51.006;12.436;2022-09-30T09:17:21;13.10;99.90
5196;DHT22;2617;51.006;12.436;2022-09-30T09:22:20;13.10;99.90
5196;DHT22;2617;51.006;12.436;2022-09-30T09:27:44;13.20;99.90
5196;DHT22;2617;51.006;12.436;2022-09-30T09:32:46;13.40;99.90
5196;DHT22;2617;51.006;12.436;2022-09-30T09:37:52;13.70;99.90
5196;DHT22;2617;51.006;12.436;2022-09-30T09:54:09;14.40;99.90
5196;DHT22;2617;51.006;12.436;2022-09-30T09:59:13;14.40;99.90
5196;DHT22;2617;51.006;12.436;2022-09-30T10:04:19;14.50;99.90
5196;DHT22;2617;51.006;12.436;2022-09-30T10:09:31;14.70;99.90
5196;DHT22;2617;51.006;12.436;2022-09-30T10:14:37;14.90;99.90
5196;DHT22;2617;51.006;12.436;2022-09-30T10:19:38;14.90;99.90
5196;DHT22;2617;51.006;12.436;2022-09-30T10:24:40;15.00;99.90
5196;DHT22;2617;51.006;12.436;2022-09-30T10:29:45;15.20;99.90
5196;DHT22;2617;51.006;12.436;2022-09-30T10:34:45;15.40;99.10
5196;DHT22;2617;51.006;12.436;2022-09-30T10:39:55;15.50;98.70
5196;DHT22;2617;51.006;12.436;2022-09-30T10:45:04;15.70;97.20
5196;DHT22;2617;51.006;12.436;2022-09-30T10:50:10;16.20;97.00
5196;DHT22;2617;51.006;12.436;2022-09-30T10:55:26;16.40;96.70
5196;DHT22;2617;51.006;12.436;2022-09-30T11:00:30;16.30;96.60
5196;DHT22;2617;51.006;12.436;2022-09-30T11:05:34;16.40;97.30
5196;DHT22;2617;51.006;12.436;2022-09-30T11:10:47;16.20;96.10
5196;DHT22;2617;51.006;12.436;2022-09-30T11:16:20;16.30;97.00
5196;DHT22;2617;51.006;12.436;2022-09-30T11:21:28;16.30;97.00
5196;DHT22;2617;51.006;12.436;2022-09-30T11:26:40;16.50;96.00
5196;DHT22;2617;51.006;12.436;2022-09-30T11:31:50;16.30;96.90
5196;DHT22;2617;51.006;12.436;2022-09-30T11:37:04;16.70;95.90
5196;DHT22;2617;51.006;12.436;2022-09-30T11:42:30;17.10;96.70
5196;DHT22;2617;51.006;12.436;2022-09-30T11:58:24;18.20;93.60
5196;DHT22;2617;51.006;12.436;2022-09-30T12:03:29;18.10;93.50
5196;DHT22;2617;51.006;12.436;2022-09-30T12:08:33;18.30;92.20
5196;DHT22;2617;51.006;12.436;2022-09-30T12:13:40;18.10;92.80
5196;DHT22;2617;51.006;12.436;2022-09-30T12:18:43;17.90;93.70
5196;DHT22;2617;51.006;12.436;2022-09-30T12:23:45;17.90;93.80
5196;DHT22;2617;51.006;12.436;2022-09-30T12:28:55;18.10;94.00
5196;DHT22;2617;51.006;12.436;2022-09-30T12:34:10;18.50;93.80
5196;DHT22;2617;51.006;12.436;2022-09-30T12:39:33;18.50;91.80
5196;DHT22;2617;51.006;12.436;2022-09-30T12:45:06;17.60;92.70
5196;DHT22;2617;51.006;12.436;2022-09-30T12:50:07;17.20;94.70
5196;DHT22;2617;51.006;12.436;2022-09-30T12:55:19;17.70;94.80
5196;DHT22;2617;51.006;12.436;2022-09-30T13:00:22;18.30;93.90
5196;DHT22;2617;51.006;12.436;2022-09-30T13:05:45;18.50;91.60
5196;DHT22;2617;51.006;12.436;2022-09-30T13:10:56;18.60;91.90
5196;DHT22;2617;51.006;12.436;2022-09-30T13:15:57;18.60;91.50
5196;DHT22;2617;51.006;12.436;2022-09-30T13:21:19;18.50;92.10
5196;DHT22;2617;51.006;12.436;2022-09-30T13:26:37;18.40;91.10
5196;DHT22;2617;51.006;12.436;2022-09-30T13:32:01;17.90;92.70
5196;DHT22;2617;51.006;12.436;2022-09-30T13:37:03;17.90;92.70
5196;DHT22;2617;51.006;12.436;2022-09-30T13:42:17;17.60;93.50
5196;DHT22;2617;51.006;12.436;2022-09-30T13:47:25;17.40;93.50
5196;DHT22;2617;51.006;12.436;2022-09-30T13:52:48;17.10;94.80
5196;DHT22;2617;51.006;12.436;2022-09-30T13:58:08;17.10;94.80
5196;DHT22;2617;51.006;12.436;2022-09-30T14:03:35;17.60;94.50
5196;DHT22;2617;51.006;12.436;2022-09-30T14:14:46;17.80;93.20
5196;DHT22;2617;51.006;12.436;2022-09-30T14:25:15;17.90;91.80
5196;DHT22;2617;51.006;12.436;2022-09-30T14:30:19;17.90;91.80
5196;DHT22;2617;51.006;12.436;2022-09-30T14:35:24;17.80;92.60
5196;DHT22;2617;51.006;12.436;2022-09-30T14:40:29;17.80;92.20
5196;DHT22;2617;51.006;12.436;2022-09-30T14:45:35;17.30;92.20
5196;DHT22;2617;51.006;12.436;2022-09-30T14:50:40;17.30;92.20
5196;DHT22;2617;51.006;12.436;2022-09-30T14:55:39;17.20;92.40
5196;DHT22;2617;51.006;12.436;2022-09-30T15:00:42;17.10;93.20
5196;DHT22;2617;51.006;12.436;2022-09-30T15:05:44;17.00;93.20
5196;DHT22;2617;51.006;12.436;2022-09-30T15:10:48;16.80;93.20
5196;DHT22;2617;51.006;12.436;2022-09-30T15:15:50;16.60;93.60
5196;DHT22;2617;51.006;12.436;2022-09-30T15:20:55;16.60;94.40
5196;DHT22;2617;51.006;12.436;2022-09-30T15:25:57;16.50;94.30
5196;DHT22;2617;51.006;12.436;2022-09-30T15:30:59;16.50;94.70
5196;DHT22;2617;51.006;12.436;2022-09-30T15:36:07;16.00;95.00
5196;DHT22;2617;51.006;12.436;2022-09-30T15:41:09;16.00;95.00
5196;DHT22;2617;51.006;12.436;2022-09-30T15:46:30;15.50;97.50
5196;DHT22;2617;51.006;12.436;2022-09-30T15:51:35;15.50;97.50
5196;DHT22;2617;51.006;12.436;2022-09-30T15:56:43;15.30;99.30
5196;DHT22;2617;51.006;12.436;2022-09-30T16:01:47;15.10;99.90
5196;DHT22;2617;51.006;12.436;2022-09-30T16:06:52;15.10;99.90
5196;DHT22;2617;51.006;12.436;2022-09-30T16:12:01;15.00;99.90
5196;DHT22;2617;51.006;12.436;2022-09-30T16:17:03;14.90;99.90
5196;DHT22;2617;51.006;12.436;2022-09-30T16:22:24;14.50;99.90
5196;DHT22;2617;51.006;12.436;2022-09-30T16:27:20;14.30;99.90
5196;DHT22;2617;51.006;12.436;2022-09-30T16:32:21;14.30;99.90
5196;DHT22;2617;51.006;12.436;2022-09-30T16:37:24;14.10;99.90
5196;DHT22;2617;51.006;12.436;2022-09-30T16:42:26;13.80;99.90
5196;DHT22;2617;51.006;12.436;2022-09-30T16:47:29;13.60;99.90
5196;DHT22;2617;51.006;12.436;2022-09-30T16:52:31;13.30;99.90
5196;DHT22;2617;51.006;12.436;2022-09-30T16:57:33;13.10;99.90
5196;DHT22;2617;51.006;12.436;2022-09-30T17:02:36;12.50;99.90
5196;DHT22;2617;51.006;12.436;2022-09-30T17:07:39;12.50;99.90
5196;DHT22;2617;51.006;12.436;2022-09-30T17:12:41;12.30;99.90
5196;DHT22;2617;51.006;12.436;2022-09-30T17:17:45;12.00;99.90
5196;DHT22;2617;51.006;12.436;2022-09-30T17:22:48;11.80;99.90
5196;DHT22;2617;51.006;12.436;2022-09-30T17:27:50;11.80;99.90
5196;DHT22;2617;51.006;12.436;2022-09-30T17:32:53;11.50;99.90
5196;DHT22;2617;51.006;12.436;2022-09-30T17:37:56;11.50;99.90
5196;DHT22;2617;51.006;12.436;2022-09-30T17:42:58;11.30;99.90
5196;DHT22;2617;51.006;12.436;2022-09-30T17:48:06;11.30;99.90
5196;DHT22;2617;51.006;12.436;2022-09-30T17:53:10;11.00;99.90
5196;DHT22;2617;51.006;12.436;2022-09-30T17:58:15;11.00;99.90
5196;DHT22;2617;51.006;12.436;2022-09-30T18:03:17;10.80;99.90
5196;DHT22;2617;51.006;12.436;2022-09-30T18:08:19;10.70;99.90
5196;DHT22;2617;51.006;12.436;2022-09-30T18:13:23;10.50;99.90
5196;DHT22;2617;51.006;12.436;2022-09-30T18:18:25;10.40;99.90
5196;DHT22;2617;51.006;12.436;2022-09-30T18:23:27;10.20;99.90
5196;DHT22;2617;51.006;12.436;2022-09-30T18:28:30;10.10;99.90
5196;DHT22;2617;51.006;12.436;2022-09-30T18:33:32;10.00;99.90
5196;DHT22;2617;51.006;12.436;2022-09-30T18:38:34;9.90;99.90
5196;DHT22;2617;51.006;12.436;2022-09-30T18:43:37;9.80;99.90
5196;DHT22;2617;51.006;12.436;2022-09-30T18:48:40;9.50;99.90
5196;DHT22;2617;51.006;12.436;2022-09-30T18:53:43;9.50;99.90
5196;DHT22;2617;51.006;12.436;2022-09-30T18:58:47;9.20;99.90
5196;DHT22;2617;51.006;12.436;2022-09-30T19:03:48;9.20;99.90
5196;DHT22;2617;51.006;12.436;2022-09-30T19:08:50;9.10;99.90
5196;DHT22;2617;51.006;12.436;2022-09-30T19:13:53;9.00;99.90
5196;DHT22;2617;51.006;12.436;2022-09-30T19:18:57;8.90;99.90
5196;DHT22;2617;51.006;12.436;2022-09-30T19:24:01;8.90;99.90
5196;DHT22;2617;51.006;12.436;2022-09-30T19:29:03;9.00;99.90
5196;DHT22;2617;51.006;12.436;2022-09-30T19:34:07;9.20;99.90
5196;DHT22;2617;51.006;12.436;2022-09-30T19:39:09;9.20;99.90
5196;DHT22;2617;51.006;12.436;2022-09-30T19:44:11;9.20;99.90
5196;DHT22;2617;51.006;12.436;2022-09-30T19:49:14;9.30;99.90
5196;DHT22;2617;51.006;12.436;2022-09-30T19:54:18;9.20;99.90
5196;DHT22;2617;51.006;12.436;2022-09-30T19:59:21;9.10;99.90
5196;DHT22;2617;51.006;12.436;2022-09-30T20:04:23;9.10;99.90
5196;DHT22;2617;51.006;12.436;2022-09-30T20:09:26;9.00;99.90
5196;DHT22;2617;51.006;12.436;2022-09-30T20:14:29;9.00;99.90
5196;DHT22;2617;51.006;12.436;2022-09-30T20:19:37;8.90;99.90
5196;DHT22;2617;51.006;12.436;2022-09-30T20:24:39;8.80;99.90
5196;DHT22;2617;51.006;12.436;2022-09-30T20:29:41;8.70;99.90
5196;DHT22;2617;51.006;12.436;2022-09-30T20:34:44;8.70;99.90
5196;DHT22;2617;51.006;12.436;2022-09-30T20:39:46;8.60;99.90
5196;DHT22;2617;51.006;12.436;2022-09-30T20:44:49;8.50;99.90
5196;DHT22;2617;51.006;12.436;2022-09-30T20:49:51;8.50;99.90
5196;DHT22;2617;51.006;12.436;2022-09-30T20:54:53;8.40;99.90
5196;DHT22;2617;51.006;12.436;2022-09-30T20:59:58;8.40;99.90
5196;DHT22;2617;51.006;12.436;2022-09-30T21:05:02;8.30;99.90
5196;DHT22;2617;51.006;12.436;2022-09-30T21:10:04;8.20;99.90
5196;DHT22;2617;51.006;12.436;2022-09-30T21:15:08;8.20;99.90
5196;DHT22;2617;51.006;12.436;2022-09-30T21:20:10;8.20;99.90
5196;DHT22;2617;51.006;12.436;2022-09-30T21:25:13;8.20;99.90
5196;DHT22;2617;51.006;12.436;2022-09-30T21:30:15;8.20;99.90
5196;DHT22;2617;51.006;12.436;2022-09-30T21:35:18;8.30;99.90
5196;DHT22;2617;51.006;12.436;2022-09-30T21:40:21;8.20;99.90
5196;DHT22;2617;51.006;12.436;2022-09-30T21:45:23;8.20;99.90
5196;DHT22;2617;51.006;12.436;2022-09-30T21:50:26;8.10;99.90
5196;DHT22;2617;51.006;12.436;2022-09-30T21:55:28;8.10;99.90
5196;DHT22;2617;51.006;12.436;2022-09-30T22:00:30;8.00;99.90
5196;DHT22;2617;51.006;12.436;2022-09-30T22:05:33;8.00;99.90
5196;DHT22;2617;51.006;12.436;2022-09-30T22:10:35;7.90;99.90
5196;DHT22;2617;51.006;12.436;2022-09-30T22:15:38;7.70;99.90
5196;DHT22;2617;51.006;12.436;2022-09-30T22:20:40;7.70;99.90
5196;DHT22;2617;51.006;12.436;2022-09-30T22:25:42;7.60;99.90
5196;DHT22;2617;51.006;12.436;2022-09-30T22:30:45;7.60;99.90
5196;DHT22;2617;51.006;12.436;2022-09-30T22:35:47;7.60;99.90
5196;DHT22;2617;51.006;12.436;2022-09-30T22:40:55;7.50;99.90
5196;DHT22;2617;51.006;12.436;2022-09-30T22:46:04;7.50;99.90
5196;DHT22;2617;51.006;12.436;2022-09-30T22:51:05;7.50;99.90
5196;DHT22;2617;51.006;12.436;2022-09-30T22:56:08;7.40;99.90
5196;DHT22;2617;51.006;12.436;2022-09-30T23:01:10;7.40;99.90
5196;DHT22;2617;51.006;12.436;2022-09-30T23:06:13;7.40;99.90
5196;DHT22;2617;51.006;12.436;2022-09-30T23:11:15;7.30;99.90
5196;DHT22;2617;51.006;12.436;2022-09-30T23:16:18;7.30;99.90
5196;DHT22;2617;51.006;12.436;2022-09-30T23:21:20;7.30;99.90
5196;DHT22;2617;51.006;12.436;2022-09-30T23:26:24;7.20;99.90
5196;DHT22;2617;51.006;12.436;2022-09-30T23:31:25;7.20;99.90
5196;DHT22;2617;51.006;12.436;2022-09-30T23:36:28;7.20;99.90
5196;DHT22;2617;51.006;12.436;2022-09-30T23:41:31;7.10;99.90
5196;DHT22;2617;51.006;12.436;2022-09-30T23:46:34;7.00;99.90
5196;DHT22;2617;51.006;12.436;2022-09-30T23:51:36;7.00;99.90
5196;DHT22;2617;51.006;12.436;2022-09-30T23:56:38;7.00;99.90
